createdAt,value
2023-05-21T00:01:08.029Z,16.46
2023-05-21T00:03:36.242Z,16.62
2023-05-21T00:06:03.902Z,16.66
2023-05-21T00:08:31.195Z,16.70
2023-05-21T00:10:57.958Z,16.12
2023-05-21T00:13:24.574Z,15.49
2023-05-21T00:15:51.542Z,14.99
2023-05-21T00:18:18.290Z,14.74
2023-05-21T00:20:45.861Z,15.14
2023-05-21T00:23:12.528Z,15.61
2023-05-21T00:25:39.271Z,15.96
2023-05-21T00:28:05.841Z,16.22
2023-05-21T00:30:32.446Z,16.39
2023-05-21T00:33:02.960Z,16.39
2023-05-21T00:35:30.117Z,15.82
2023-05-21T00:37:57.335Z,15.22
2023-05-21T00:40:24.270Z,14.87
2023-05-21T00:42:50.917Z,15.22
2023-05-21T00:45:17.570Z,15.64
2023-05-21T00:47:45.158Z,15.93
2023-05-21T00:50:11.974Z,16.12
2023-05-21T00:52:41.935Z,16.23
2023-05-21T00:55:09.984Z,16.17
2023-05-21T00:57:37.202Z,15.57
2023-05-21T01:00:09.051Z,14.89
2023-05-21T01:02:37.465Z,14.47
2023-05-21T01:05:06.180Z,14.74
2023-05-21T01:07:39.043Z,15.13
2023-05-21T01:10:08.518Z,15.40
2023-05-21T01:12:37.940Z,15.55
2023-05-21T01:15:05.533Z,15.64
2023-05-21T01:17:34.398Z,15.70
2023-05-21T01:20:02.128Z,15.75
2023-05-21T01:22:32.523Z,15.69
2023-05-21T01:25:05.218Z,15.09
2023-05-21T01:27:33.705Z,14.37
2023-05-21T01:30:00.877Z,13.95
2023-05-21T01:33:04.046Z,14.20
2023-05-21T01:35:53.943Z,14.61
2023-05-21T01:38:28.796Z,14.87
2023-05-21T01:41:00.360Z,15.04
2023-05-21T01:43:29.957Z,15.16
2023-05-21T01:45:57.361Z,15.27
2023-05-21T01:48:27.344Z,15.28
2023-05-21T01:50:55.896Z,15.32
2023-05-21T01:53:22.616Z,14.71
2023-05-21T01:55:49.595Z,14.08
2023-05-21T01:58:17.216Z,13.68
2023-05-21T02:00:45.486Z,13.95
2023-05-21T02:03:13.743Z,14.30
2023-05-21T02:05:41.155Z,14.55
2023-05-21T02:08:08.532Z,14.72
2023-05-21T02:10:36.386Z,14.84
2023-05-21T02:13:03.440Z,14.94
2023-05-21T02:18:46.471Z,15.03
2023-05-21T02:21:13.282Z,15.10
2023-05-21T02:23:41.835Z,15.15
2023-05-21T02:26:08.687Z,15.16
2023-05-21T02:28:36.409Z,15.18
2023-05-21T02:31:03.242Z,15.16
2023-05-21T02:33:29.868Z,15.17
2023-05-21T02:35:56.503Z,15.18
2023-05-21T02:38:25.887Z,15.17
2023-05-21T02:40:53.194Z,15.16
2023-05-21T02:43:20.176Z,15.15
2023-05-21T02:45:46.822Z,15.16
2023-05-21T02:48:14.402Z,15.12
2023-05-21T02:50:41.314Z,15.06
2023-05-21T02:53:08.181Z,15.00
2023-05-21T02:55:36.182Z,14.96
2023-05-21T02:58:02.979Z,14.92
2023-05-21T03:00:29.568Z,14.86
2023-05-21T03:02:56.719Z,14.91
2023-05-21T03:05:24.425Z,14.97
2023-05-21T03:07:51.469Z,15.00
2023-05-21T03:10:18.225Z,15.05
2023-05-21T03:12:44.850Z,15.13
2023-05-21T03:15:14.880Z,15.20
2023-05-21T03:17:44.433Z,15.26
2023-05-21T03:20:17.140Z,15.24
2023-05-21T03:22:46.670Z,15.41
2023-05-21T03:25:13.512Z,15.38
2023-05-21T03:27:40.420Z,14.79
2023-05-21T03:30:13.370Z,14.12
2023-05-21T03:32:54.243Z,13.78
2023-05-21T03:35:20.978Z,14.19
2023-05-21T03:37:47.827Z,14.65
2023-05-21T03:40:14.610Z,15.01
2023-05-21T03:42:41.307Z,15.29
2023-05-21T03:45:08.484Z,15.50
2023-05-21T03:48:02.050Z,15.50
2023-05-21T03:50:29.914Z,14.96
2023-05-21T03:52:57.758Z,14.42
2023-05-21T03:55:24.314Z,14.18
2023-05-21T03:57:50.890Z,14.62
2023-05-21T04:00:17.900Z,15.18
2023-05-21T04:02:47.003Z,15.64
2023-05-21T04:05:15.983Z,15.86
2023-05-21T04:07:43.070Z,15.50
2023-05-21T04:10:09.831Z,15.09
2023-05-21T04:12:36.456Z,14.81
2023-05-21T04:15:04.647Z,14.61
2023-05-21T04:17:31.372Z,14.47
2023-05-21T04:19:58.017Z,14.56
2023-05-21T04:22:26.723Z,15.30
2023-05-21T04:24:54.662Z,16.03
2023-05-21T04:27:26.103Z,16.37
2023-05-21T04:29:54.821Z,16.07
2023-05-21T04:32:22.163Z,15.77
2023-05-21T04:34:48.777Z,15.59
2023-05-21T04:37:17.954Z,15.46
2023-05-21T04:39:45.544Z,15.40
2023-05-21T04:42:12.334Z,15.37
2023-05-21T04:44:40.454Z,15.39
2023-05-21T04:47:07.991Z,15.39
2023-05-21T04:49:36.037Z,15.40
2023-05-21T04:52:02.687Z,15.43
2023-05-21T04:54:29.293Z,15.46
2023-05-21T04:56:55.931Z,15.51
2023-05-21T04:59:22.901Z,15.56
2023-05-21T05:01:49.590Z,15.66
2023-05-21T05:04:16.328Z,15.74
2023-05-21T05:06:43.042Z,15.80
2023-05-21T05:09:09.682Z,15.86
2023-05-21T05:11:36.501Z,15.95
2023-05-21T05:14:03.911Z,16.04
2023-05-21T05:16:31.325Z,16.12
2023-05-21T05:18:58.026Z,16.20
2023-05-21T05:21:25.130Z,16.29
2023-05-21T05:23:52.046Z,16.37
2023-05-21T05:26:19.961Z,16.46
2023-05-21T05:28:46.859Z,16.54
2023-05-21T05:31:14.055Z,16.65
2023-05-21T05:33:42.326Z,16.77
2023-05-21T05:36:09.004Z,16.87
2023-05-21T05:38:36.218Z,16.97
2023-05-21T05:41:03.050Z,17.03
2023-05-21T05:43:29.712Z,17.07
2023-05-21T05:45:57.745Z,17.14
2023-05-21T05:48:24.419Z,17.24
2023-05-21T05:50:54.786Z,17.34
2023-05-21T05:53:22.092Z,17.48
2023-05-21T05:55:48.679Z,17.63
2023-05-21T05:58:15.488Z,17.76
2023-05-21T06:00:49.552Z,17.86
2023-05-21T06:03:16.309Z,17.97
2023-05-21T06:05:43.214Z,18.06
2023-05-21T06:08:10.308Z,18.14
2023-05-21T06:10:36.877Z,18.18
2023-05-21T06:13:03.526Z,18.25
2023-05-21T06:15:30.332Z,18.34
2023-05-21T06:17:57.020Z,18.46
2023-05-21T06:20:23.755Z,18.58
2023-05-21T06:22:50.522Z,18.66
2023-05-21T06:25:18.290Z,18.74
2023-05-21T06:27:44.985Z,18.79
2023-05-21T06:30:17.439Z,18.89
2023-05-21T06:32:44.599Z,19.02
2023-05-21T06:35:11.346Z,19.13
2023-05-21T06:37:38.911Z,19.26
2023-05-21T06:40:06.551Z,19.38
2023-05-21T06:42:34.071Z,19.49
2023-05-21T06:45:26.572Z,19.58
2023-05-21T06:47:58.097Z,19.68
2023-05-21T06:50:24.798Z,19.82
2023-05-21T06:52:51.672Z,19.98
2023-05-21T06:55:18.330Z,20.13
2023-05-21T06:58:01.088Z,20.46
2023-05-21T07:00:27.880Z,21.53
2023-05-21T07:02:54.671Z,23.35
2023-05-21T07:05:21.331Z,25.35
2023-05-21T07:07:47.971Z,27.22
2023-05-21T07:10:14.587Z,28.80
2023-05-21T07:12:41.967Z,30.20
2023-05-21T07:15:09.695Z,31.55
2023-05-21T07:17:37.524Z,32.82
2023-05-21T07:20:07.969Z,33.86
2023-05-21T07:22:34.970Z,34.74
2023-05-21T07:25:01.896Z,35.56
2023-05-21T07:27:28.622Z,36.31
2023-05-21T07:29:55.877Z,36.98
2023-05-21T07:32:22.906Z,37.43
2023-05-21T07:34:49.574Z,37.96
2023-05-21T07:37:16.199Z,38.44
2023-05-21T07:39:42.831Z,38.79
2023-05-21T07:42:10.972Z,39.21
2023-05-21T07:44:37.736Z,39.68
2023-05-21T07:47:05.018Z,40.09
2023-05-21T07:49:32.129Z,40.17
2023-05-21T07:51:58.957Z,40.50
2023-05-21T07:54:26.416Z,40.51
2023-05-21T07:56:53.506Z,40.71
2023-05-21T07:59:45.718Z,41.28
2023-05-21T08:02:12.402Z,41.68
2023-05-21T08:04:41.097Z,41.86
2023-05-21T08:07:09.888Z,41.89
2023-05-21T08:09:36.884Z,41.76
2023-05-21T08:12:04.397Z,41.73
2023-05-21T08:14:31.161Z,42.05
2023-05-21T08:16:58.469Z,42.34
2023-05-21T08:19:25.127Z,42.40
2023-05-21T08:21:52.950Z,42.47
2023-05-21T08:24:20.494Z,42.42
2023-05-21T08:26:49.586Z,42.46
2023-05-21T08:29:16.319Z,42.60
2023-05-21T08:31:43.138Z,42.48
2023-05-21T08:34:09.862Z,42.56
2023-05-21T08:36:47.068Z,42.72
2023-05-21T08:39:32.822Z,42.89
2023-05-21T08:42:08.439Z,43.04
2023-05-21T08:44:39.267Z,43.28
2023-05-21T08:47:10.697Z,43.21
2023-05-21T08:49:37.543Z,43.39
2023-05-21T08:52:06.282Z,43.33
2023-05-21T08:54:33.675Z,43.04
2023-05-21T08:57:02.604Z,42.61
2023-05-21T08:59:29.277Z,42.23
2023-05-21T09:01:57.705Z,42.47
2023-05-21T09:04:29.128Z,42.85
2023-05-21T09:06:58.063Z,43.46
2023-05-21T09:09:57.681Z,43.28
2023-05-21T09:12:28.588Z,42.89
2023-05-21T09:14:58.368Z,42.82
2023-05-21T09:17:29.308Z,42.96
2023-05-21T09:20:15.984Z,43.13
2023-05-21T09:22:49.025Z,43.49
2023-05-21T09:25:30.017Z,43.67
2023-05-21T09:27:59.990Z,43.73
2023-05-21T09:30:30.545Z,43.83
2023-05-21T09:33:00.262Z,44.39
2023-05-21T09:35:27.059Z,44.65
2023-05-21T09:37:54.051Z,44.31
2023-05-21T09:40:22.686Z,43.79
2023-05-21T09:42:51.372Z,43.48
2023-05-21T09:45:22.592Z,43.30
2023-05-21T09:47:51.039Z,42.99
2023-05-21T09:50:31.571Z,42.62
2023-05-21T09:52:58.640Z,42.29
2023-05-21T09:55:26.992Z,42.19
2023-05-21T09:57:53.734Z,42.26
2023-05-21T10:00:27.285Z,42.04
2023-05-21T10:02:55.838Z,42.04
2023-05-21T10:05:26.429Z,42.25
2023-05-21T10:07:56.335Z,42.38
2023-05-21T10:10:23.796Z,42.48
2023-05-21T10:13:03.761Z,42.43
2023-05-21T10:15:35.378Z,42.46
2023-05-21T10:18:03.662Z,42.57
2023-05-21T10:20:30.880Z,42.86
2023-05-21T10:22:59.060Z,43.22
2023-05-21T10:25:26.547Z,43.18
2023-05-21T10:27:56.085Z,42.81
2023-05-21T10:30:26.987Z,42.53
2023-05-21T10:32:56.094Z,42.40
2023-05-21T10:35:23.079Z,42.50
2023-05-21T10:37:52.168Z,42.79
2023-05-21T10:40:18.680Z,42.88
2023-05-21T10:43:02.630Z,42.89
2023-05-21T10:45:50.984Z,42.60
2023-05-21T10:48:48.551Z,42.47
2023-05-21T10:51:50.116Z,42.59
2023-05-21T10:54:22.878Z,42.66
2023-05-21T10:57:08.863Z,42.18
2023-05-21T10:59:43.272Z,41.37
2023-05-21T11:02:12.925Z,41.16
2023-05-21T11:04:43.295Z,41.20
2023-05-21T11:07:12.032Z,41.23
2023-05-21T11:09:38.959Z,41.12
2023-05-21T11:12:08.151Z,40.99
2023-05-21T11:14:39.645Z,40.72
2023-05-21T11:17:06.717Z,40.73
2023-05-21T11:19:39.888Z,41.01
2023-05-21T11:22:27.089Z,41.11
2023-05-21T11:24:55.776Z,40.90
2023-05-21T11:27:37.526Z,40.56
2023-05-21T11:30:24.431Z,40.22
2023-05-21T11:33:13.894Z,39.93
2023-05-21T11:35:49.934Z,40.03
2023-05-21T11:38:18.178Z,40.39
2023-05-21T11:40:55.303Z,40.59
2023-05-21T11:43:22.331Z,40.60
2023-05-21T11:45:52.312Z,40.49
2023-05-21T11:48:26.876Z,40.32
2023-05-21T11:50:54.532Z,40.20
2023-05-21T11:53:21.218Z,39.88
2023-05-21T11:55:47.963Z,39.53
2023-05-21T11:58:16.565Z,39.48
2023-05-21T12:00:43.362Z,39.88
2023-05-21T12:03:13.947Z,39.96
2023-05-21T12:05:48.179Z,39.28
2023-05-21T12:08:25.525Z,38.40
2023-05-21T12:11:00.013Z,37.80
2023-05-21T12:13:27.136Z,37.51
2023-05-21T12:15:56.580Z,37.19
2023-05-21T12:18:23.293Z,37.01
2023-05-21T12:20:52.026Z,37.06
2023-05-21T12:23:25.752Z,36.97
2023-05-21T12:25:53.820Z,36.75
2023-05-21T12:28:22.082Z,36.53
2023-05-21T12:30:48.754Z,36.33
2023-05-21T12:33:17.996Z,36.10
2023-05-21T12:35:50.019Z,35.86
2023-05-21T12:38:17.015Z,35.75
2023-05-21T12:40:45.494Z,35.52
2023-05-21T12:43:12.475Z,35.31
2023-05-21T12:45:42.204Z,35.26
2023-05-21T12:48:09.422Z,35.22
2023-05-21T12:50:40.483Z,35.06
2023-05-21T12:53:09.379Z,34.97
2023-05-21T12:55:36.050Z,34.85
2023-05-21T12:58:05.631Z,34.56
2023-05-21T13:00:33.126Z,34.31
2023-05-21T13:03:01.251Z,34.02
2023-05-21T13:05:28.061Z,33.88
2023-05-21T13:07:54.621Z,33.88
2023-05-21T13:10:21.867Z,34.01
2023-05-21T13:12:48.554Z,33.93
2023-05-21T13:15:18.652Z,33.73
2023-05-21T13:17:46.858Z,33.49
2023-05-21T13:20:17.608Z,33.13
2023-05-21T13:22:48.878Z,32.61
2023-05-21T13:25:20.237Z,32.22
2023-05-21T13:27:48.940Z,31.97
2023-05-21T13:30:16.148Z,31.81
2023-05-21T13:32:43.731Z,31.65
2023-05-21T13:35:13.348Z,31.42
2023-05-21T13:37:40.803Z,31.14
2023-05-21T13:40:11.119Z,30.73
2023-05-21T13:42:41.277Z,30.40
2023-05-21T13:45:10.557Z,30.25
2023-05-21T13:47:40.242Z,30.07
2023-05-21T13:50:09.100Z,29.85
2023-05-21T13:52:36.380Z,29.55
2023-05-21T13:55:03.679Z,29.14
2023-05-21T13:57:30.963Z,28.74
2023-05-21T13:59:58.732Z,28.30
2023-05-21T14:02:26.536Z,27.86
2023-05-21T14:04:53.789Z,27.52
2023-05-21T14:07:20.585Z,27.29
2023-05-21T14:09:47.750Z,27.06
2023-05-21T14:12:14.377Z,26.80
2023-05-21T14:14:41.530Z,26.51
2023-05-21T14:17:08.446Z,26.33
2023-05-21T14:19:35.186Z,26.17
2023-05-21T14:22:02.125Z,25.97
2023-05-21T14:24:28.819Z,25.83
2023-05-21T14:26:55.538Z,25.81
2023-05-21T14:29:22.188Z,25.79
2023-05-21T14:31:48.858Z,25.74
2023-05-21T14:34:15.536Z,25.65
2023-05-21T14:36:42.192Z,25.48
2023-05-21T14:39:08.779Z,25.36
2023-05-21T14:41:39.702Z,25.29
2023-05-21T14:44:06.555Z,25.19
2023-05-21T14:46:33.281Z,25.05
2023-05-21T14:49:00.689Z,24.90
2023-05-21T14:51:27.499Z,24.73
2023-05-21T14:53:54.242Z,24.58
2023-05-21T14:56:22.112Z,24.48
2023-05-21T14:58:48.898Z,24.42
2023-05-21T15:01:15.581Z,24.38
2023-05-21T15:03:42.299Z,24.33
2023-05-21T15:06:09.179Z,24.30
2023-05-21T15:08:35.886Z,24.29
2023-05-21T15:11:02.583Z,24.26
2023-05-21T15:13:29.594Z,24.20
2023-05-21T15:15:56.422Z,24.12
2023-05-21T15:18:24.757Z,24.05
2023-05-21T15:20:51.895Z,24.00
2023-05-21T15:23:18.647Z,23.93
2023-05-21T15:25:45.729Z,23.84
2023-05-21T15:28:13.005Z,23.76
2023-05-21T15:30:40.281Z,23.70
2023-05-21T15:33:07.007Z,23.68
2023-05-21T15:35:35.549Z,23.66
2023-05-21T15:38:02.841Z,23.65
2023-05-21T15:40:29.645Z,23.64
2023-05-21T15:42:56.369Z,23.60
2023-05-21T15:45:25.300Z,23.59
2023-05-21T15:47:51.954Z,23.60
2023-05-21T15:50:18.785Z,23.60
2023-05-21T15:52:45.388Z,23.58
2023-05-21T15:55:12.041Z,23.56
2023-05-21T15:57:38.688Z,23.52
2023-05-21T16:00:06.297Z,23.50
2023-05-21T16:02:35.576Z,23.44
2023-05-21T16:05:02.461Z,23.37
2023-05-21T16:07:29.057Z,23.32
2023-05-21T16:09:55.702Z,23.28
2023-05-21T16:12:22.545Z,23.21
2023-05-21T16:14:52.355Z,23.15
2023-05-21T16:17:21.626Z,23.10
2023-05-21T16:19:48.370Z,23.06
2023-05-21T16:22:15.180Z,23.05
2023-05-21T16:24:41.777Z,23.05
2023-05-21T16:27:08.438Z,23.02
2023-05-21T16:29:35.303Z,23.00
2023-05-21T16:32:02.013Z,22.94
2023-05-21T16:34:28.636Z,22.86
2023-05-21T16:36:55.403Z,22.75
2023-05-21T16:39:22.540Z,22.66
2023-05-21T16:41:49.208Z,22.57
2023-05-21T16:44:15.967Z,22.50
2023-05-21T16:46:42.794Z,22.42
2023-05-21T16:49:09.475Z,22.35
2023-05-21T16:51:36.295Z,22.29
2023-05-21T16:54:04.775Z,22.23
2023-05-21T16:56:31.523Z,22.19
2023-05-21T16:58:58.299Z,22.15
2023-05-21T17:01:25.095Z,22.09
2023-05-21T17:03:51.920Z,22.04
2023-05-21T17:06:18.669Z,21.98
2023-05-21T17:08:45.482Z,21.91
2023-05-21T17:11:12.125Z,21.85
2023-05-21T17:13:38.716Z,21.79
2023-05-21T17:16:05.504Z,21.73
2023-05-21T17:18:32.259Z,21.66
2023-05-21T17:20:59.096Z,21.60
2023-05-21T17:23:25.728Z,21.55
2023-05-21T17:25:52.674Z,21.48
2023-05-21T17:28:19.415Z,21.44
2023-05-21T17:30:48.700Z,21.38
2023-05-21T17:33:16.373Z,21.32
2023-05-21T17:35:43.357Z,21.23
2023-05-21T17:38:10.469Z,21.14
2023-05-21T17:40:37.238Z,21.04
2023-05-21T17:43:05.100Z,20.95
2023-05-21T17:45:31.947Z,20.89
2023-05-21T17:48:00.466Z,20.85
2023-05-21T17:50:28.564Z,20.80
2023-05-21T17:52:55.534Z,20.74
2023-05-21T17:55:22.188Z,20.70
2023-05-21T17:57:48.882Z,20.67
2023-05-21T18:00:15.795Z,20.61
2023-05-21T18:02:42.502Z,20.55
2023-05-21T18:05:09.330Z,20.44
2023-05-21T18:07:37.564Z,20.29
2023-05-21T18:10:04.528Z,20.13
2023-05-21T18:12:31.204Z,19.95
2023-05-21T18:14:58.465Z,19.76
2023-05-21T18:17:25.340Z,19.57
2023-05-21T18:19:52.015Z,19.35
2023-05-21T18:22:18.867Z,19.17
2023-05-21T18:24:46.312Z,18.99
2023-05-21T18:27:13.580Z,18.79
2023-05-21T18:29:40.387Z,18.60
2023-05-21T18:32:07.728Z,18.42
2023-05-21T18:34:34.567Z,18.24
2023-05-21T18:37:01.205Z,18.06
2023-05-21T18:39:28.141Z,17.90
2023-05-21T18:42:11.465Z,17.74
2023-05-21T18:44:38.784Z,17.56
2023-05-21T18:47:06.099Z,17.40
2023-05-21T18:49:35.293Z,17.24
2023-05-21T18:52:01.990Z,17.09
2023-05-21T18:54:28.618Z,16.94
2023-05-21T18:56:55.269Z,16.81
2023-05-21T18:59:21.872Z,16.68
2023-05-21T19:01:48.536Z,16.57
2023-05-21T19:04:16.271Z,16.45
2023-05-21T19:06:43.087Z,16.35
2023-05-21T19:09:09.721Z,16.25
2023-05-21T19:11:37.485Z,16.14
2023-05-21T19:14:04.969Z,16.02
2023-05-21T19:16:31.650Z,15.90
2023-05-21T19:18:58.840Z,15.77
2023-05-21T19:21:25.861Z,15.64
2023-05-21T19:23:53.602Z,15.52
2023-05-21T19:26:24.268Z,15.53
2023-05-21T19:28:53.884Z,16.11
2023-05-21T19:31:21.959Z,16.72
2023-05-21T19:33:48.969Z,17.14
2023-05-21T19:36:16.045Z,17.33
2023-05-21T19:38:50.210Z,16.93
2023-05-21T19:41:18.691Z,16.42
2023-05-21T19:43:46.135Z,16.03
2023-05-21T19:46:13.545Z,15.74
2023-05-21T19:48:40.983Z,15.62
2023-05-21T19:51:07.859Z,16.07
2023-05-21T19:53:34.937Z,16.56
2023-05-21T19:56:01.694Z,16.91
2023-05-21T19:58:30.318Z,17.04
2023-05-21T20:00:59.380Z,16.58
2023-05-21T20:03:26.649Z,16.04
2023-05-21T20:05:53.620Z,15.60
2023-05-21T20:08:20.563Z,15.38
2023-05-21T20:10:51.437Z,15.77
2023-05-21T20:13:19.682Z,16.24
2023-05-21T20:15:48.001Z,16.57
2023-05-21T20:18:15.461Z,16.79
2023-05-21T20:20:43.185Z,16.95
2023-05-21T20:23:10.092Z,16.95
